Benasque, Spain
Current Conditions -  °F | °C
As of 6:30 AM on Monday 20 Oct 2014 (Local Time) from LFBT Reporting Station
Clear Clear  
Wind Chill: 55°   Ceiling: Unl
Heat Index: 55°   Visibility: 6mi
Dew Point: 50°   Wind: 6mph
Humidity: 82%   Direction: 160°SSE
Pressure: 30.15"   Gusts: NA
Location:  42.61°N, 0.52°E
Report Text: LFBT 200430Z AUTO 16005KT 9999 NCD 13/10 Q1021
Loading
Personal Weather Stations






























Interactive Weather Map
Tropical Storm Tracking
New forecast layout! Learn more

10-Day Weather Forecast

Advertisements
Track Severe Weather on mobile